sensor_id;sensor_type;location;lat;lon;timestamp;P1;durP1;ratioP1;P2;durP2;ratioP2
19312;SDS011;9791;50.820;4.406;2023-06-10T00:00:15;8.57;;;5.57;;
19312;SDS011;9791;50.820;4.406;2023-06-10T00:02:41;7.07;;;4.90;;
19312;SDS011;9791;50.820;4.406;2023-06-10T00:05:08;9.25;;;5.60;;
19312;SDS011;9791;50.820;4.406;2023-06-10T00:07:35;8.88;;;5.20;;
19312;SDS011;9791;50.820;4.406;2023-06-10T00:10:04;10.70;;;5.78;;
19312;SDS011;9791;50.820;4.406;2023-06-10T00:12:31;9.63;;;5.65;;
19312;SDS011;9791;50.820;4.406;2023-06-10T00:15:02;9.25;;;5.18;;
19312;SDS011;9791;50.820;4.406;2023-06-10T00:17:32;7.47;;;5.05;;
19312;SDS011;9791;50.820;4.406;2023-06-10T00:19:58;8.20;;;5.60;;
19312;SDS011;9791;50.820;4.406;2023-06-10T00:22:24;9.48;;;5.70;;
19312;SDS011;9791;50.820;4.406;2023-06-10T00:24:55;7.00;;;5.03;;
19312;SDS011;9791;50.820;4.406;2023-06-10T00:27:24;10.20;;;5.55;;
19312;SDS011;9791;50.820;4.406;2023-06-10T00:29:56;8.80;;;5.50;;
19312;SDS011;9791;50.820;4.406;2023-06-10T00:32:22;10.50;;;6.10;;
19312;SDS011;9791;50.820;4.406;2023-06-10T00:34:48;11.70;;;5.72;;
19312;SDS011;9791;50.820;4.406;2023-06-10T00:37:14;9.18;;;6.20;;
19312;SDS011;9791;50.820;4.406;2023-06-10T00:39:40;7.20;;;5.00;;
19312;SDS011;9791;50.820;4.406;2023-06-10T00:42:06;9.50;;;5.32;;
19312;SDS011;9791;50.820;4.406;2023-06-10T00:44:32;8.13;;;5.93;;
19312;SDS011;9791;50.820;4.406;2023-06-10T00:46:58;11.55;;;5.20;;
19312;SDS011;9791;50.820;4.406;2023-06-10T00:49:24;7.85;;;5.72;;
19312;SDS011;9791;50.820;4.406;2023-06-10T00:51:51;8.60;;;5.88;;
19312;SDS011;9791;50.820;4.406;2023-06-10T00:54:18;10.35;;;5.93;;
19312;SDS011;9791;50.820;4.406;2023-06-10T00:56:44;8.27;;;5.93;;
19312;SDS011;9791;50.820;4.406;2023-06-10T00:59:10;12.15;;;6.28;;
19312;SDS011;9791;50.820;4.406;2023-06-10T01:01:36;13.18;;;5.85;;
19312;SDS011;9791;50.820;4.406;2023-06-10T01:04:04;9.82;;;5.53;;
19312;SDS011;9791;50.820;4.406;2023-06-10T01:06:40;7.93;;;5.32;;
19312;SDS011;9791;50.820;4.406;2023-06-10T01:09:18;8.48;;;5.32;;
19312;SDS011;9791;50.820;4.406;2023-06-10T01:11:52;8.52;;;6.00;;
19312;SDS011;9791;50.820;4.406;2023-06-10T01:14:23;7.65;;;5.60;;
19312;SDS011;9791;50.820;4.406;2023-06-10T01:16:50;8.65;;;5.30;;
19312;SDS011;9791;50.820;4.406;2023-06-10T01:19:18;7.78;;;5.95;;
19312;SDS011;9791;50.820;4.406;2023-06-10T01:21:44;8.07;;;6.15;;
19312;SDS011;9791;50.820;4.406;2023-06-10T01:24:14;8.60;;;5.57;;
19312;SDS011;9791;50.820;4.406;2023-06-10T01:26:43;8.15;;;5.65;;
19312;SDS011;9791;50.820;4.406;2023-06-10T01:31:58;8.52;;;5.45;;
19312;SDS011;9791;50.820;4.406;2023-06-10T01:34:27;7.60;;;5.28;;
19312;SDS011;9791;50.820;4.406;2023-06-10T01:36:54;10.73;;;5.70;;
19312;SDS011;9791;50.820;4.406;2023-06-10T01:39:22;9.02;;;6.63;;
19312;SDS011;9791;50.820;4.406;2023-06-10T01:41:49;9.57;;;5.75;;
19312;SDS011;9791;50.820;4.406;2023-06-10T01:44:19;8.80;;;5.93;;
19312;SDS011;9791;50.820;4.406;2023-06-10T01:46:46;9.32;;;5.75;;
19312;SDS011;9791;50.820;4.406;2023-06-10T01:49:12;9.02;;;5.88;;
19312;SDS011;9791;50.820;4.406;2023-06-10T01:51:38;7.65;;;5.53;;
19312;SDS011;9791;50.820;4.406;2023-06-10T01:54:05;9.23;;;5.78;;
19312;SDS011;9791;50.820;4.406;2023-06-10T01:56:32;8.50;;;5.82;;
19312;SDS011;9791;50.820;4.406;2023-06-10T01:58:58;8.18;;;5.65;;
19312;SDS011;9791;50.820;4.406;2023-06-10T02:01:27;8.52;;;5.45;;
19312;SDS011;9791;50.820;4.406;2023-06-10T02:03:53;8.07;;;5.55;;
19312;SDS011;9791;50.820;4.406;2023-06-10T02:06:19;9.18;;;5.65;;
19312;SDS011;9791;50.820;4.406;2023-06-10T02:08:45;8.10;;;6.20;;
19312;SDS011;9791;50.820;4.406;2023-06-10T02:11:13;8.52;;;6.10;;
19312;SDS011;9791;50.820;4.406;2023-06-10T02:13:39;9.52;;;5.80;;
19312;SDS011;9791;50.820;4.406;2023-06-10T02:16:05;9.85;;;5.75;;
19312;SDS011;9791;50.820;4.406;2023-06-10T02:18:31;8.55;;;6.05;;
19312;SDS011;9791;50.820;4.406;2023-06-10T02:20:57;8.60;;;5.70;;
19312;SDS011;9791;50.820;4.406;2023-06-10T02:23:24;8.95;;;5.57;;
19312;SDS011;9791;50.820;4.406;2023-06-10T02:25:50;8.10;;;5.57;;
19312;SDS011;9791;50.820;4.406;2023-06-10T02:28:16;10.10;;;6.03;;
19312;SDS011;9791;50.820;4.406;2023-06-10T02:30:44;8.35;;;5.78;;
19312;SDS011;9791;50.820;4.406;2023-06-10T02:33:11;8.40;;;5.50;;
19312;SDS011;9791;50.820;4.406;2023-06-10T02:35:38;9.45;;;5.63;;
19312;SDS011;9791;50.820;4.406;2023-06-10T02:38:04;10.18;;;5.72;;
19312;SDS011;9791;50.820;4.406;2023-06-10T02:40:30;7.82;;;5.55;;
19312;SDS011;9791;50.820;4.406;2023-06-10T02:42:57;11.13;;;6.68;;
19312;SDS011;9791;50.820;4.406;2023-06-10T02:45:23;11.55;;;6.10;;
19312;SDS011;9791;50.820;4.406;2023-06-10T02:47:49;7.68;;;5.82;;
19312;SDS011;9791;50.820;4.406;2023-06-10T02:50:15;8.95;;;6.30;;
19312;SDS011;9791;50.820;4.406;2023-06-10T02:52:41;9.77;;;6.22;;
19312;SDS011;9791;50.820;4.406;2023-06-10T02:55:08;8.63;;;6.40;;
19312;SDS011;9791;50.820;4.406;2023-06-10T02:57:34;8.35;;;6.50;;
19312;SDS011;9791;50.820;4.406;2023-06-10T03:00:00;15.43;;;6.88;;
19312;SDS011;9791;50.820;4.406;2023-06-10T03:02:35;8.35;;;6.30;;
19312;SDS011;9791;50.820;4.406;2023-06-10T03:05:03;8.57;;;5.82;;
19312;SDS011;9791;50.820;4.406;2023-06-10T03:07:30;9.63;;;6.25;;
19312;SDS011;9791;50.820;4.406;2023-06-10T03:09:57;9.05;;;6.20;;
19312;SDS011;9791;50.820;4.406;2023-06-10T03:12:23;8.20;;;5.60;;
19312;SDS011;9791;50.820;4.406;2023-06-10T03:14:49;13.88;;;5.97;;
19312;SDS011;9791;50.820;4.406;2023-06-10T03:17:15;8.48;;;6.10;;
19312;SDS011;9791;50.820;4.406;2023-06-10T03:19:41;8.98;;;6.10;;
19312;SDS011;9791;50.820;4.406;2023-06-10T03:22:11;9.57;;;6.32;;
19312;SDS011;9791;50.820;4.406;2023-06-10T03:24:37;9.50;;;6.13;;
19312;SDS011;9791;50.820;4.406;2023-06-10T03:27:05;9.98;;;6.28;;
19312;SDS011;9791;50.820;4.406;2023-06-10T03:29:31;13.85;;;6.88;;
19312;SDS011;9791;50.820;4.406;2023-06-10T03:31:57;12.18;;;6.68;;
19312;SDS011;9791;50.820;4.406;2023-06-10T03:34:23;9.23;;;5.60;;
19312;SDS011;9791;50.820;4.406;2023-06-10T03:36:50;10.90;;;6.57;;
19312;SDS011;9791;50.820;4.406;2023-06-10T03:39:16;9.10;;;6.70;;
19312;SDS011;9791;50.820;4.406;2023-06-10T03:41:42;10.02;;;6.10;;
19312;SDS011;9791;50.820;4.406;2023-06-10T03:44:08;8.55;;;6.00;;
19312;SDS011;9791;50.820;4.406;2023-06-10T03:46:34;9.73;;;6.95;;
19312;SDS011;9791;50.820;4.406;2023-06-10T03:49:00;10.65;;;6.72;;
19312;SDS011;9791;50.820;4.406;2023-06-10T03:51:28;7.82;;;6.07;;
19312;SDS011;9791;50.820;4.406;2023-06-10T03:53:54;12.05;;;6.97;;
19312;SDS011;9791;50.820;4.406;2023-06-10T03:56:20;8.82;;;6.55;;
19312;SDS011;9791;50.820;4.406;2023-06-10T03:58:46;9.15;;;6.60;;
19312;SDS011;9791;50.820;4.406;2023-06-10T04:01:12;10.82;;;5.97;;
19312;SDS011;9791;50.820;4.406;2023-06-10T04:03:43;7.32;;;5.60;;
19312;SDS011;9791;50.820;4.406;2023-06-10T04:06:09;8.20;;;6.25;;
19312;SDS011;9791;50.820;4.406;2023-06-10T04:08:35;8.93;;;6.43;;
19312;SDS011;9791;50.820;4.406;2023-06-10T04:11:02;9.02;;;6.47;;
19312;SDS011;9791;50.820;4.406;2023-06-10T04:13:28;9.07;;;6.30;;
19312;SDS011;9791;50.820;4.406;2023-06-10T04:15:55;9.82;;;6.53;;
19312;SDS011;9791;50.820;4.406;2023-06-10T04:18:21;9.73;;;6.63;;
19312;SDS011;9791;50.820;4.406;2023-06-10T04:20:47;8.88;;;6.43;;
19312;SDS011;9791;50.820;4.406;2023-06-10T04:23:13;11.70;;;6.28;;
19312;SDS011;9791;50.820;4.406;2023-06-10T04:25:39;10.05;;;6.68;;
19312;SDS011;9791;50.820;4.406;2023-06-10T04:28:05;10.00;;;6.60;;
19312;SDS011;9791;50.820;4.406;2023-06-10T04:30:31;8.77;;;6.53;;
19312;SDS011;9791;50.820;4.406;2023-06-10T04:32:57;8.13;;;5.80;;
19312;SDS011;9791;50.820;4.406;2023-06-10T04:35:23;9.77;;;6.68;;
19312;SDS011;9791;50.820;4.406;2023-06-10T04:37:51;9.23;;;6.57;;
19312;SDS011;9791;50.820;4.406;2023-06-10T04:40:17;12.93;;;7.20;;
19312;SDS011;9791;50.820;4.406;2023-06-10T04:42:44;11.52;;;7.20;;
19312;SDS011;9791;50.820;4.406;2023-06-10T04:45:10;12.35;;;6.18;;
19312;SDS011;9791;50.820;4.406;2023-06-10T04:47:36;10.30;;;6.40;;
19312;SDS011;9791;50.820;4.406;2023-06-10T04:50:02;10.13;;;6.93;;
19312;SDS011;9791;50.820;4.406;2023-06-10T04:52:29;10.82;;;7.05;;
19312;SDS011;9791;50.820;4.406;2023-06-10T04:54:57;9.40;;;6.38;;
19312;SDS011;9791;50.820;4.406;2023-06-10T04:57:23;7.80;;;5.55;;
19312;SDS011;9791;50.820;4.406;2023-06-10T04:59:51;10.60;;;6.70;;
19312;SDS011;9791;50.820;4.406;2023-06-10T05:02:17;9.02;;;6.15;;
19312;SDS011;9791;50.820;4.406;2023-06-10T05:04:43;8.73;;;6.38;;
19312;SDS011;9791;50.820;4.406;2023-06-10T05:07:09;10.18;;;6.63;;
19312;SDS011;9791;50.820;4.406;2023-06-10T05:09:35;12.00;;;6.70;;
19312;SDS011;9791;50.820;4.406;2023-06-10T05:12:02;10.20;;;7.13;;
19312;SDS011;9791;50.820;4.406;2023-06-10T05:14:28;11.98;;;6.68;;
19312;SDS011;9791;50.820;4.406;2023-06-10T05:16:54;11.93;;;6.47;;
19312;SDS011;9791;50.820;4.406;2023-06-10T05:19:20;8.88;;;6.88;;
19312;SDS011;9791;50.820;4.406;2023-06-10T05:21:46;9.10;;;6.00;;
19312;SDS011;9791;50.820;4.406;2023-06-10T05:24:12;11.25;;;7.10;;
19312;SDS011;9791;50.820;4.406;2023-06-10T05:26:38;10.13;;;6.80;;
19312;SDS011;9791;50.820;4.406;2023-06-10T05:29:05;9.88;;;6.40;;
19312;SDS011;9791;50.820;4.406;2023-06-10T05:31:31;10.27;;;6.53;;
19312;SDS011;9791;50.820;4.406;2023-06-10T05:33:57;13.05;;;7.30;;
19312;SDS011;9791;50.820;4.406;2023-06-10T05:36:23;9.85;;;6.45;;
19312;SDS011;9791;50.820;4.406;2023-06-10T05:38:52;9.63;;;6.28;;
19312;SDS011;9791;50.820;4.406;2023-06-10T05:41:18;9.23;;;6.28;;
19312;SDS011;9791;50.820;4.406;2023-06-10T05:43:45;8.02;;;5.93;;
19312;SDS011;9791;50.820;4.406;2023-06-10T05:46:12;10.95;;;6.72;;
19312;SDS011;9791;50.820;4.406;2023-06-10T05:48:38;9.43;;;6.18;;
19312;SDS011;9791;50.820;4.406;2023-06-10T05:51:04;7.72;;;5.70;;
19312;SDS011;9791;50.820;4.406;2023-06-10T05:53:31;10.88;;;6.70;;
19312;SDS011;9791;50.820;4.406;2023-06-10T05:55:58;9.85;;;6.78;;
19312;SDS011;9791;50.820;4.406;2023-06-10T05:58:24;11.45;;;6.32;;
19312;SDS011;9791;50.820;4.406;2023-06-10T06:00:50;12.13;;;6.55;;
19312;SDS011;9791;50.820;4.406;2023-06-10T06:03:17;11.02;;;6.45;;
19312;SDS011;9791;50.820;4.406;2023-06-10T06:05:43;8.77;;;6.25;;
19312;SDS011;9791;50.820;4.406;2023-06-10T06:08:10;11.30;;;6.38;;
19312;SDS011;9791;50.820;4.406;2023-06-10T06:10:38;12.95;;;6.15;;
19312;SDS011;9791;50.820;4.406;2023-06-10T06:13:04;9.30;;;6.65;;
19312;SDS011;9791;50.820;4.406;2023-06-10T06:15:30;10.80;;;6.60;;
19312;SDS011;9791;50.820;4.406;2023-06-10T06:17:56;13.30;;;5.80;;
19312;SDS011;9791;50.820;4.406;2023-06-10T06:20:22;9.25;;;6.43;;
19312;SDS011;9791;50.820;4.406;2023-06-10T06:22:50;11.25;;;5.93;;
19312;SDS011;9791;50.820;4.406;2023-06-10T06:25:16;8.52;;;5.90;;
19312;SDS011;9791;50.820;4.406;2023-06-10T06:27:42;7.82;;;5.10;;
19312;SDS011;9791;50.820;4.406;2023-06-10T06:30:08;8.05;;;4.93;;
19312;SDS011;9791;50.820;4.406;2023-06-10T06:32:34;8.18;;;5.10;;
19312;SDS011;9791;50.820;4.406;2023-06-10T06:35:00;10.68;;;5.38;;
19312;SDS011;9791;50.820;4.406;2023-06-10T06:37:26;9.43;;;4.90;;
19312;SDS011;9791;50.820;4.406;2023-06-10T06:39:53;7.85;;;4.93;;
19312;SDS011;9791;50.820;4.406;2023-06-10T06:42:19;7.90;;;5.22;;
19312;SDS011;9791;50.820;4.406;2023-06-10T06:44:47;7.72;;;5.05;;
19312;SDS011;9791;50.820;4.406;2023-06-10T06:47:13;10.32;;;4.65;;
19312;SDS011;9791;50.820;4.406;2023-06-10T06:49:39;7.80;;;4.80;;
19312;SDS011;9791;50.820;4.406;2023-06-10T06:52:05;7.47;;;5.03;;
19312;SDS011;9791;50.820;4.406;2023-06-10T06:54:31;7.63;;;4.72;;
19312;SDS011;9791;50.820;4.406;2023-06-10T06:56:57;7.57;;;4.43;;
19312;SDS011;9791;50.820;4.406;2023-06-10T06:59:23;8.38;;;4.57;;
19312;SDS011;9791;50.820;4.406;2023-06-10T07:01:50;8.45;;;4.70;;
19312;SDS011;9791;50.820;4.406;2023-06-10T07:04:19;6.70;;;4.55;;
19312;SDS011;9791;50.820;4.406;2023-06-10T07:06:46;9.57;;;4.38;;
19312;SDS011;9791;50.820;4.406;2023-06-10T07:09:12;7.78;;;4.72;;
19312;SDS011;9791;50.820;4.406;2023-06-10T07:11:38;10.82;;;4.30;;
19312;SDS011;9791;50.820;4.406;2023-06-10T07:14:05;6.93;;;4.15;;
19312;SDS011;9791;50.820;4.406;2023-06-10T07:16:31;6.80;;;4.13;;
19312;SDS011;9791;50.820;4.406;2023-06-10T07:18:57;6.55;;;4.03;;
19312;SDS011;9791;50.820;4.406;2023-06-10T07:21:23;6.68;;;4.40;;
19312;SDS011;9791;50.820;4.406;2023-06-10T07:23:49;5.95;;;4.20;;
19312;SDS011;9791;50.820;4.406;2023-06-10T07:26:18;6.80;;;4.45;;
19312;SDS011;9791;50.820;4.406;2023-06-10T07:28:44;6.40;;;4.10;;
19312;SDS011;9791;50.820;4.406;2023-06-10T07:31:10;6.13;;;4.00;;
19312;SDS011;9791;50.820;4.406;2023-06-10T07:33:37;6.45;;;4.60;;
19312;SDS011;9791;50.820;4.406;2023-06-10T07:36:06;8.68;;;4.30;;
19312;SDS011;9791;50.820;4.406;2023-06-10T07:38:32;10.93;;;4.63;;
19312;SDS011;9791;50.820;4.406;2023-06-10T07:40:59;9.00;;;4.45;;
19312;SDS011;9791;50.820;4.406;2023-06-10T07:43:25;6.43;;;4.30;;
19312;SDS011;9791;50.820;4.406;2023-06-10T07:45:51;7.60;;;4.30;;
19312;SDS011;9791;50.820;4.406;2023-06-10T07:48:17;5.57;;;3.78;;
19312;SDS011;9791;50.820;4.406;2023-06-10T07:50:43;6.80;;;4.80;;
19312;SDS011;9791;50.820;4.406;2023-06-10T07:53:10;7.13;;;4.47;;
19312;SDS011;9791;50.820;4.406;2023-06-10T07:55:36;6.95;;;4.20;;
19312;SDS011;9791;50.820;4.406;2023-06-10T07:58:02;9.23;;;4.50;;
19312;SDS011;9791;50.820;4.406;2023-06-10T08:00:28;8.35;;;4.40;;
19312;SDS011;9791;50.820;4.406;2023-06-10T08:02:54;7.15;;;4.32;;
19312;SDS011;9791;50.820;4.406;2023-06-10T08:05:20;11.52;;;4.22;;
19312;SDS011;9791;50.820;4.406;2023-06-10T08:07:46;8.68;;;4.35;;
19312;SDS011;9791;50.820;4.406;2023-06-10T08:10:12;6.10;;;4.00;;
19312;SDS011;9791;50.820;4.406;2023-06-10T08:12:38;8.43;;;4.63;;
19312;SDS011;9791;50.820;4.406;2023-06-10T08:15:05;6.18;;;4.07;;
19312;SDS011;9791;50.820;4.406;2023-06-10T08:17:31;7.18;;;4.28;;
19312;SDS011;9791;50.820;4.406;2023-06-10T08:19:57;6.13;;;4.05;;
19312;SDS011;9791;50.820;4.406;2023-06-10T08:22:23;7.80;;;4.30;;
19312;SDS011;9791;50.820;4.406;2023-06-10T08:24:49;5.93;;;3.78;;
19312;SDS011;9791;50.820;4.406;2023-06-10T08:27:15;7.18;;;3.80;;
19312;SDS011;9791;50.820;4.406;2023-06-10T08:29:41;6.90;;;4.15;;
19312;SDS011;9791;50.820;4.406;2023-06-10T08:32:07;5.85;;;3.70;;
19312;SDS011;9791;50.820;4.406;2023-06-10T08:34:34;9.02;;;4.05;;
19312;SDS011;9791;50.820;4.406;2023-06-10T08:37:02;6.88;;;3.83;;
19312;SDS011;9791;50.820;4.406;2023-06-10T08:39:28;5.63;;;3.67;;
19312;SDS011;9791;50.820;4.406;2023-06-10T08:42:04;5.85;;;3.33;;
19312;SDS011;9791;50.820;4.406;2023-06-10T08:44:31;6.47;;;3.88;;
19312;SDS011;9791;50.820;4.406;2023-06-10T08:46:59;7.88;;;3.67;;
19312;SDS011;9791;50.820;4.406;2023-06-10T08:49:25;5.78;;;3.58;;
19312;SDS011;9791;50.820;4.406;2023-06-10T08:51:55;6.00;;;3.67;;
19312;SDS011;9791;50.820;4.406;2023-06-10T08:54:25;5.10;;;3.45;;
19312;SDS011;9791;50.820;4.406;2023-06-10T08:56:51;6.40;;;3.83;;
19312;SDS011;9791;50.820;4.406;2023-06-10T08:59:19;7.93;;;4.00;;
19312;SDS011;9791;50.820;4.406;2023-06-10T09:01:46;5.40;;;3.80;;
19312;SDS011;9791;50.820;4.406;2023-06-10T09:04:12;5.65;;;3.90;;
19312;SDS011;9791;50.820;4.406;2023-06-10T09:06:39;8.90;;;3.85;;
19312;SDS011;9791;50.820;4.406;2023-06-10T09:09:06;6.03;;;3.38;;
19312;SDS011;9791;50.820;4.406;2023-06-10T09:11:34;7.85;;;3.72;;
19312;SDS011;9791;50.820;4.406;2023-06-10T09:14:00;7.43;;;3.67;;
19312;SDS011;9791;50.820;4.406;2023-06-10T09:16:27;5.80;;;3.70;;
19312;SDS011;9791;50.820;4.406;2023-06-10T09:18:54;5.45;;;3.40;;
19312;SDS011;9791;50.820;4.406;2023-06-10T09:21:23;5.93;;;3.38;;
19312;SDS011;9791;50.820;4.406;2023-06-10T09:23:50;7.13;;;3.78;;
19312;SDS011;9791;50.820;4.406;2023-06-10T09:26:16;9.63;;;3.78;;
19312;SDS011;9791;50.820;4.406;2023-06-10T09:28:43;12.32;;;3.75;;
19312;SDS011;9791;50.820;4.406;2023-06-10T09:31:09;9.77;;;3.60;;
19312;SDS011;9791;50.820;4.406;2023-06-10T09:33:37;9.52;;;3.63;;
19312;SDS011;9791;50.820;4.406;2023-06-10T09:36:07;5.45;;;3.30;;
19312;SDS011;9791;50.820;4.406;2023-06-10T09:38:33;5.10;;;3.40;;
19312;SDS011;9791;50.820;4.406;2023-06-10T09:41:00;4.45;;;2.85;;
19312;SDS011;9791;50.820;4.406;2023-06-10T09:43:38;11.10;;;3.92;;
19312;SDS011;9791;50.820;4.406;2023-06-10T09:46:05;7.45;;;3.58;;
19312;SDS011;9791;50.820;4.406;2023-06-10T09:48:34;7.70;;;3.47;;
19312;SDS011;9791;50.820;4.406;2023-06-10T09:51:01;6.43;;;3.53;;
19312;SDS011;9791;50.820;4.406;2023-06-10T09:53:27;7.35;;;3.40;;
19312;SDS011;9791;50.820;4.406;2023-06-10T09:55:56;5.65;;;3.60;;
19312;SDS011;9791;50.820;4.406;2023-06-10T09:58:56;6.45;;;3.58;;
19312;SDS011;9791;50.820;4.406;2023-06-10T10:01:15;6.80;;;3.53;;
19312;SDS011;9791;50.820;4.406;2023-06-10T10:03:45;4.88;;;3.30;;
19312;SDS011;9791;50.820;4.406;2023-06-10T10:06:12;5.70;;;3.17;;
19312;SDS011;9791;50.820;4.406;2023-06-10T10:08:38;6.25;;;3.50;;
19312;SDS011;9791;50.820;4.406;2023-06-10T10:11:04;4.75;;;3.40;;
19312;SDS011;9791;50.820;4.406;2023-06-10T10:13:31;7.43;;;3.28;;
19312;SDS011;9791;50.820;4.406;2023-06-10T10:16:00;7.03;;;3.30;;
19312;SDS011;9791;50.820;4.406;2023-06-10T10:18:29;6.90;;;3.35;;
19312;SDS011;9791;50.820;4.406;2023-06-10T10:20:55;5.78;;;3.75;;
19312;SDS011;9791;50.820;4.406;2023-06-10T10:23:34;7.70;;;2.97;;
19312;SDS011;9791;50.820;4.406;2023-06-10T10:26:03;4.90;;;3.35;;
19312;SDS011;9791;50.820;4.406;2023-06-10T10:28:34;7.57;;;3.10;;
19312;SDS011;9791;50.820;4.406;2023-06-10T10:31:06;10.70;;;3.83;;
19312;SDS011;9791;50.820;4.406;2023-06-10T10:33:57;5.55;;;3.13;;
19312;SDS011;9791;50.820;4.406;2023-06-10T10:36:21;5.20;;;3.05;;
19312;SDS011;9791;50.820;4.406;2023-06-10T10:38:48;5.72;;;3.20;;
19312;SDS011;9791;50.820;4.406;2023-06-10T10:41:14;7.80;;;3.65;;
19312;SDS011;9791;50.820;4.406;2023-06-10T10:43:41;6.97;;;3.50;;
19312;SDS011;9791;50.820;4.406;2023-06-10T10:46:14;7.30;;;3.20;;
19312;SDS011;9791;50.820;4.406;2023-06-10T10:48:40;5.82;;;3.38;;
19312;SDS011;9791;50.820;4.406;2023-06-10T10:51:07;5.38;;;3.15;;
19312;SDS011;9791;50.820;4.406;2023-06-10T10:53:33;5.47;;;3.25;;
19312;SDS011;9791;50.820;4.406;2023-06-10T10:56:00;5.90;;;3.17;;
19312;SDS011;9791;50.820;4.406;2023-06-10T10:58:30;6.45;;;3.45;;
19312;SDS011;9791;50.820;4.406;2023-06-10T11:01:00;5.20;;;2.92;;
19312;SDS011;9791;50.820;4.406;2023-06-10T11:03:35;6.05;;;3.25;;
19312;SDS011;9791;50.820;4.406;2023-06-10T11:06:11;4.63;;;2.80;;
19312;SDS011;9791;50.820;4.406;2023-06-10T11:11:20;5.95;;;3.03;;
19312;SDS011;9791;50.820;4.406;2023-06-10T11:16:42;6.43;;;3.30;;
19312;SDS011;9791;50.820;4.406;2023-06-10T11:19:08;6.53;;;3.40;;
19312;SDS011;9791;50.820;4.406;2023-06-10T11:21:57;6.35;;;3.92;;
19312;SDS011;9791;50.820;4.406;2023-06-10T11:24:24;5.40;;;3.33;;
19312;SDS011;9791;50.820;4.406;2023-06-10T11:26:51;5.57;;;3.08;;
19312;SDS011;9791;50.820;4.406;2023-06-10T11:29:17;5.85;;;3.53;;
19312;SDS011;9791;50.820;4.406;2023-06-10T11:31:45;5.93;;;3.05;;
19312;SDS011;9791;50.820;4.406;2023-06-10T11:34:12;6.47;;;3.28;;
19312;SDS011;9791;50.820;4.406;2023-06-10T11:36:40;5.75;;;3.78;;
19312;SDS011;9791;50.820;4.406;2023-06-10T11:39:07;5.03;;;3.17;;
19312;SDS011;9791;50.820;4.406;2023-06-10T11:41:34;5.75;;;3.85;;
19312;SDS011;9791;50.820;4.406;2023-06-10T11:44:06;5.32;;;3.72;;
19312;SDS011;9791;50.820;4.406;2023-06-10T11:46:33;9.85;;;4.47;;
19312;SDS011;9791;50.820;4.406;2023-06-10T11:49:00;7.47;;;4.20;;
19312;SDS011;9791;50.820;4.406;2023-06-10T11:51:31;6.15;;;3.95;;
19312;SDS011;9791;50.820;4.406;2023-06-10T11:53:58;4.47;;;3.13;;
19312;SDS011;9791;50.820;4.406;2023-06-10T11:56:24;9.07;;;3.58;;
19312;SDS011;9791;50.820;4.406;2023-06-10T12:01:20;6.05;;;4.13;;
19312;SDS011;9791;50.820;4.406;2023-06-10T12:03:56;6.43;;;3.97;;
19312;SDS011;9791;50.820;4.406;2023-06-10T12:06:24;13.55;;;6.15;;
19312;SDS011;9791;50.820;4.406;2023-06-10T12:08:50;6.72;;;4.32;;
19312;SDS011;9791;50.820;4.406;2023-06-10T12:11:16;6.40;;;4.13;;
19312;SDS011;9791;50.820;4.406;2023-06-10T12:13:46;7.60;;;4.68;;
19312;SDS011;9791;50.820;4.406;2023-06-10T12:16:15;6.55;;;3.63;;
19312;SDS011;9791;50.820;4.406;2023-06-10T12:18:43;7.03;;;4.20;;
19312;SDS011;9791;50.820;4.406;2023-06-10T12:21:20;7.15;;;3.88;;
19312;SDS011;9791;50.820;4.406;2023-06-10T12:26:36;9.48;;;4.40;;
19312;SDS011;9791;50.820;4.406;2023-06-10T12:29:12;9.40;;;4.00;;
19312;SDS011;9791;50.820;4.406;2023-06-10T12:31:54;9.07;;;4.47;;
19312;SDS011;9791;50.820;4.406;2023-06-10T12:34:27;9.10;;;4.50;;
19312;SDS011;9791;50.820;4.406;2023-06-10T12:36:53;6.50;;;4.30;;
19312;SDS011;9791;50.820;4.406;2023-06-10T12:39:19;6.32;;;4.45;;
19312;SDS011;9791;50.820;4.406;2023-06-10T12:41:49;7.55;;;4.93;;
19312;SDS011;9791;50.820;4.406;2023-06-10T12:44:15;10.13;;;4.38;;
19312;SDS011;9791;50.820;4.406;2023-06-10T12:46:41;7.55;;;4.97;;
19312;SDS011;9791;50.820;4.406;2023-06-10T12:49:07;6.35;;;4.30;;
19312;SDS011;9791;50.820;4.406;2023-06-10T12:51:34;10.90;;;4.78;;
19312;SDS011;9791;50.820;4.406;2023-06-10T12:54:02;5.90;;;4.05;;
19312;SDS011;9791;50.820;4.406;2023-06-10T12:56:28;6.63;;;4.50;;
19312;SDS011;9791;50.820;4.406;2023-06-10T12:58:54;7.72;;;4.63;;
19312;SDS011;9791;50.820;4.406;2023-06-10T13:01:20;5.93;;;4.13;;
19312;SDS011;9791;50.820;4.406;2023-06-10T13:03:46;8.23;;;4.38;;
19312;SDS011;9791;50.820;4.406;2023-06-10T13:06:12;8.07;;;4.35;;
19312;SDS011;9791;50.820;4.406;2023-06-10T13:08:38;8.18;;;5.03;;
19312;SDS011;9791;50.820;4.406;2023-06-10T13:11:04;6.50;;;4.25;;
19312;SDS011;9791;50.820;4.406;2023-06-10T13:13:32;7.22;;;4.40;;
19312;SDS011;9791;50.820;4.406;2023-06-10T13:15:58;7.70;;;4.82;;
19312;SDS011;9791;50.820;4.406;2023-06-10T13:18:24;10.23;;;4.78;;
19312;SDS011;9791;50.820;4.406;2023-06-10T13:20:51;8.90;;;4.68;;
19312;SDS011;9791;50.820;4.406;2023-06-10T13:23:17;8.48;;;4.53;;
19312;SDS011;9791;50.820;4.406;2023-06-10T13:25:42;7.50;;;4.75;;
19312;SDS011;9791;50.820;4.406;2023-06-10T13:28:09;8.00;;;4.75;;
19312;SDS011;9791;50.820;4.406;2023-06-10T13:30:36;9.82;;;4.60;;
19312;SDS011;9791;50.820;4.406;2023-06-10T13:33:02;8.98;;;4.75;;
19312;SDS011;9791;50.820;4.406;2023-06-10T13:35:28;7.32;;;4.50;;
19312;SDS011;9791;50.820;4.406;2023-06-10T13:37:54;7.22;;;4.75;;
19312;SDS011;9791;50.820;4.406;2023-06-10T13:40:20;11.55;;;4.70;;
19312;SDS011;9791;50.820;4.406;2023-06-10T13:42:47;6.32;;;4.15;;
19312;SDS011;9791;50.820;4.406;2023-06-10T13:45:15;6.88;;;4.47;;
19312;SDS011;9791;50.820;4.406;2023-06-10T13:47:42;6.25;;;4.10;;
19312;SDS011;9791;50.820;4.406;2023-06-10T13:50:08;8.15;;;4.85;;
19312;SDS011;9791;50.820;4.406;2023-06-10T13:52:34;10.32;;;4.97;;
19312;SDS011;9791;50.820;4.406;2023-06-10T13:55:00;6.47;;;4.60;;
19312;SDS011;9791;50.820;4.406;2023-06-10T13:57:26;9.35;;;4.38;;
19312;SDS011;9791;50.820;4.406;2023-06-10T13:59:52;10.80;;;4.18;;
19312;SDS011;9791;50.820;4.406;2023-06-10T14:02:20;9.82;;;5.00;;
19312;SDS011;9791;50.820;4.406;2023-06-10T14:04:46;12.05;;;4.80;;
19312;SDS011;9791;50.820;4.406;2023-06-10T14:07:12;10.38;;;4.90;;
19312;SDS011;9791;50.820;4.406;2023-06-10T14:09:38;13.32;;;5.05;;
19312;SDS011;9791;50.820;4.406;2023-06-10T14:12:05;6.95;;;4.38;;
19312;SDS011;9791;50.820;4.406;2023-06-10T14:14:31;7.43;;;4.65;;
19312;SDS011;9791;50.820;4.406;2023-06-10T14:16:58;7.00;;;4.00;;
19312;SDS011;9791;50.820;4.406;2023-06-10T14:19:24;6.63;;;4.60;;
19312;SDS011;9791;50.820;4.406;2023-06-10T14:21:50;8.40;;;4.68;;
19312;SDS011;9791;50.820;4.406;2023-06-10T14:24:18;9.80;;;4.72;;
19312;SDS011;9791;50.820;4.406;2023-06-10T14:26:44;6.75;;;4.35;;
19312;SDS011;9791;50.820;4.406;2023-06-10T14:29:10;10.93;;;4.72;;
19312;SDS011;9791;50.820;4.406;2023-06-10T14:31:39;7.95;;;4.22;;
19312;SDS011;9791;50.820;4.406;2023-06-10T14:34:05;6.85;;;4.82;;
19312;SDS011;9791;50.820;4.406;2023-06-10T14:36:32;6.15;;;4.22;;
19312;SDS011;9791;50.820;4.406;2023-06-10T14:38:58;9.85;;;4.90;;
19312;SDS011;9791;50.820;4.406;2023-06-10T14:41:25;7.88;;;4.53;;
19312;SDS011;9791;50.820;4.406;2023-06-10T14:43:51;9.95;;;4.65;;
19312;SDS011;9791;50.820;4.406;2023-06-10T14:46:17;7.43;;;4.78;;
19312;SDS011;9791;50.820;4.406;2023-06-10T14:48:45;6.20;;;4.60;;
19312;SDS011;9791;50.820;4.406;2023-06-10T14:51:11;8.38;;;4.43;;
19312;SDS011;9791;50.820;4.406;2023-06-10T14:53:38;8.05;;;4.90;;
19312;SDS011;9791;50.820;4.406;2023-06-10T14:56:04;7.57;;;4.50;;
19312;SDS011;9791;50.820;4.406;2023-06-10T14:58:30;7.45;;;4.43;;
19312;SDS011;9791;50.820;4.406;2023-06-10T15:00:56;9.60;;;4.70;;
19312;SDS011;9791;50.820;4.406;2023-06-10T15:03:22;9.30;;;4.88;;
19312;SDS011;9791;50.820;4.406;2023-06-10T15:05:48;10.63;;;4.28;;
19312;SDS011;9791;50.820;4.406;2023-06-10T15:08:14;8.82;;;4.88;;
19312;SDS011;9791;50.820;4.406;2023-06-10T15:10:40;9.70;;;4.55;;